Time;durP1;ratioP1;P1;durP2;ratioP2;P2;SDS_P1;SDS_P2;PMS_P1;PMS_P2;Temp;Humidity;BMP_temperature;BMP_pressure;BME280_temperature;BME280_humidity;BME280_pressure;Samples;Min_cycle;Max_cycle;Signal;HPM_P1;HPM_P2
2024/01/16 06:22:43;;;;;;;;;;;;;;;5.73;50.53;96170.56;4214404;27;10390;-67
2024/01/16 06:24:46;;;;;;;;;;;;;;;6.01;50.06;96160.34;4210664;28;5884;-67
2024/01/16 06:26:49;;;;;;;;;;;;;;;6.22;49.72;96165.66;4205702;28;5677;-68
2024/01/16 06:28:51;;;;;;;;;;;;;;;6.37;49.48;96169.09;4205251;28;6000;-67
2024/01/16 06:30:55;;;;;;;;;;;;;;;6.52;49.50;96165.66;4205047;28;5706;-67
2024/01/16 06:32:58;;;;;;;;;;;;;;;6.64;49.28;96161.56;4212486;28;5747;-68
2024/01/16 06:35:01;;;;;;;;;;;;;;;6.74;48.90;96161.25;4213653;28;5814;-67
2024/01/16 06:37:03;;;;;;;;;;;;;;;6.80;48.86;96157.91;4197915;28;5726;-67
2024/01/16 06:39:07;;;;;;;;;;;;;;;6.84;48.72;96159.97;4210371;28;5756;-67
2024/01/16 06:41:10;;;;;;;;;;;;;;;6.85;48.59;96161.59;4213119;28;5962;-67
2024/01/16 06:43:16;;;;;;;;;;;;;;;6.88;48.55;96161.22;4208425;28;7176;-68
2024/01/16 06:45:19;;;;;;;;;;;;;;;6.92;48.48;96154.63;4212609;28;6378;-68
2024/01/16 06:47:23;;;;;;;;;;;;;;;6.97;48.65;96157.50;4212398;28;5694;-68
2024/01/16 06:49:26;;;;;;;;;;;;;;;7.01;48.42;96158.72;4213949;28;5840;-67
2024/01/16 06:51:29;;;;;;;;;;;;;;;7.04;48.20;96156.75;4210059;28;5697;-67
2024/01/16 06:53:32;;;;;;;;;;;;;;;7.07;48.57;96159.00;4212005;28;5863;-67
2024/01/16 06:55:37;;;;;;;;;;;;;;;7.10;48.26;96166.50;4207191;28;5652;-68
2024/01/16 06:57:40;;;;;;;;;;;;;;;7.12;48.09;96161.88;4212760;28;5725;-68
2024/01/16 06:59:43;;;;;;;;;;;;;;;7.13;48.43;96174.00;4212199;28;5668;-70
2024/01/16 07:01:46;;;;;;;;;;;;;;;7.15;48.47;96170.22;4212257;28;5828;-70
2024/01/16 07:03:49;;;;;;;;;;;;;;;7.15;48.37;96170.22;4212352;28;5954;-69
2024/01/16 07:05:51;;;;;;;;;;;;;;;7.13;48.03;96171.38;4211592;28;5656;-69
2024/01/16 07:07:54;;;;;;;;;;;;;;;7.11;48.41;96173.41;4206026;28;5797;-69
2024/01/16 07:09:57;;;;;;;;;;;;;;;7.13;48.39;96174.00;4208411;28;5929;-69
2024/01/16 07:12:03;;;;;;;;;;;;;;;7.13;48.19;96179.28;4196632;28;5810;-69
2024/01/16 07:14:07;;;;;;;;;;;;;;;7.14;48.22;96187.00;4197015;28;5714;-70
2024/01/16 07:16:11;;;;;;;;;;;;;;;7.16;48.31;96184.19;4209970;28;5864;-69
2024/01/16 07:18:14;;;;;;;;;;;;;;;7.15;48.24;96179.94;4204287;28;5696;-69
2024/01/16 07:20:17;;;;;;;;;;;;;;;7.17;48.04;96181.34;4209437;28;5968;-69
2024/01/16 07:22:20;;;;;;;;;;;;;;;7.16;48.15;96177.09;4222243;28;5737;-69
2024/01/16 07:24:24;;;;;;;;;;;;;;;7.16;48.19;96176.28;4218894;28;5691;-69
2024/01/16 07:26:27;;;;;;;;;;;;;;;7.13;48.39;96180.09;4219060;28;5778;-69
2024/01/16 07:28:30;;;;;;;;;;;;;;;7.13;48.38;96176.63;4218076;28;5834;-70
2024/01/16 07:30:34;;;;;;;;;;;;;;;7.14;48.22;96180.94;4202302;28;5715;-69
2024/01/16 07:32:37;;;;;;;;;;;;;;;7.11;48.35;96181.28;4202370;28;5808;-70
2024/01/16 07:34:40;;;;;;;;;;;;;;;7.09;48.22;96176.22;4214753;28;6497;-69
2024/01/16 07:36:43;;;;;;;;;;;;;;;7.10;48.41;96179.66;4210640;28;5777;-70
2024/01/16 07:38:46;;;;;;;;;;;;;;;7.11;48.20;96173.41;4219016;28;5695;-70
2024/01/16 07:40:49;;;;;;;;;;;;;;;7.11;48.36;96176.84;4211879;28;5653;-70
2024/01/16 07:42:52;;;;;;;;;;;;;;;7.16;48.45;96184.19;4218709;28;5796;-69
2024/01/16 07:44:57;;;;;;;;;;;;;;;7.18;48.35;96187.44;4207211;28;5801;-69
2024/01/16 07:47:00;;;;;;;;;;;;;;;7.22;48.49;96188.69;4201532;28;5780;-70
2024/01/16 07:49:03;;;;;;;;;;;;;;;7.25;48.31;96190.94;4202361;28;5760;-69
2024/01/16 07:51:06;;;;;;;;;;;;;;;7.28;48.57;96188.75;4212639;28;5808;-68
2024/01/16 07:53:09;;;;;;;;;;;;;;;7.31;48.45;96190.19;4218836;28;5069;-68
2024/01/16 07:55:13;;;;;;;;;;;;;;;7.34;48.42;96191.63;4218365;28;7302;-69
2024/01/16 07:57:16;;;;;;;;;;;;;;;7.34;48.58;96202.16;4218008;28;5708;-69
2024/01/16 07:59:19;;;;;;;;;;;;;;;7.35;48.50;96199.31;4216844;28;5728;-69
2024/01/16 08:01:23;;;;;;;;;;;;;;;7.39;48.37;96195.34;4217901;28;5679;-69
2024/01/16 08:03:26;;;;;;;;;;;;;;;7.42;48.35;96199.41;4218633;28;5808;-69
2024/01/16 08:05:30;;;;;;;;;;;;;;;7.42;48.46;96205.47;4217901;28;5816;-69
2024/01/16 08:07:34;;;;;;;;;;;;;;;7.42;48.31;96207.28;4217063;28;5838;-69
2024/01/16 08:09:37;;;;;;;;;;;;;;;7.41;48.28;96205.66;4217436;28;5680;-69
2024/01/16 08:11:40;;;;;;;;;;;;;;;7.38;48.36;96204.22;4212652;28;5750;-69
2024/01/16 08:13:43;;;;;;;;;;;;;;;7.40;48.47;96204.84;4218197;28;5690;-70
2024/01/16 08:15:48;;;;;;;;;;;;;;;7.41;48.11;96208.28;4216390;28;5762;-70
2024/01/16 08:17:52;;;;;;;;;;;;;;;7.41;48.17;96203.84;4212327;28;5790;-69
2024/01/16 08:19:54;;;;;;;;;;;;;;;7.45;48.58;96214.78;4217731;28;5831;-70
2024/01/16 08:21:58;;;;;;;;;;;;;;;7.46;48.25;96211.97;4212537;28;5667;-70
2024/01/16 08:24:02;;;;;;;;;;;;;;;7.45;48.27;96215.59;4217598;28;5893;-68
2024/01/16 08:26:06;;;;;;;;;;;;;;;7.42;48.07;96205.47;4218152;28;5677;-69
2024/01/16 08:28:09;;;;;;;;;;;;;;;7.45;48.43;96212.16;4215797;28;5723;-69
2024/01/16 08:30:13;;;;;;;;;;;;;;;7.45;48.27;96215.59;4216583;28;5753;-69
2024/01/16 08:32:16;;;;;;;;;;;;;;;7.43;48.44;96214.97;4211740;28;5823;-69
2024/01/16 08:34:20;;;;;;;;;;;;;;;7.45;48.22;96210.34;4214653;28;5703;-70
2024/01/16 08:36:24;;;;;;;;;;;;;;;7.46;48.52;96217.22;4223132;28;5733;-69
2024/01/16 08:38:27;;;;;;;;;;;;;;;7.49;48.57;96219.50;4217385;28;5779;-69
2024/01/16 08:40:30;;;;;;;;;;;;;;;7.51;48.66;96214.88;4219534;28;5657;-69
2024/01/16 08:42:34;;;;;;;;;;;;;;;7.52;48.49;96211.22;4216461;28;5800;-70
2024/01/16 08:44:36;;;;;;;;;;;;;;;7.55;48.53;96213.47;4217435;28;5765;-70
2024/01/16 08:46:39;;;;;;;;;;;;;;;7.55;48.75;96216.13;4221129;28;5672;-70
2024/01/16 08:48:42;;;;;;;;;;;;;;;7.53;48.72;96210.22;4221012;28;5683;-70
2024/01/16 08:50:47;;;;;;;;;;;;;;;7.51;48.87;96204.34;4217842;28;5869;-71
2024/01/16 08:52:50;;;;;;;;;;;;;;;7.51;48.96;96196.47;4217795;28;5719;-69
2024/01/16 08:54:53;;;;;;;;;;;;;;;7.52;48.85;96195.44;4207592;28;5689;-69
2024/01/16 08:56:56;;;;;;;;;;;;;;;7.52;48.80;96200.72;4215950;28;5778;-69
2024/01/16 08:58:59;;;;;;;;;;;;;;;7.53;49.15;96210.22;4216377;28;5716;-69
2024/01/16 09:01:02;;;;;;;;;;;;;;;7.54;49.10;96213.66;4210657;28;5692;-69
2024/01/16 09:03:05;;;;;;;;;;;;;;;7.53;49.17;96215.50;4215499;28;5728;-70
2024/01/16 09:05:09;;;;;;;;;;;;;;;7.53;49.15;96207.59;4212234;28;5094;-68
2024/01/16 09:07:15;;;;;;;;;;;;;;;7.53;49.20;96204.97;4200746;28;5681;-69
2024/01/16 09:09:19;;;;;;;;;;;;;;;7.52;49.33;96205.97;4211698;28;5683;-69
2024/01/16 09:11:21;;;;;;;;;;;;;;;7.52;49.26;96213.06;4216135;28;5667;-69
2024/01/16 09:13:24;;;;;;;;;;;;;;;7.53;49.48;96215.50;4217595;28;5676;-69
2024/01/16 09:15:28;;;;;;;;;;;;;;;7.53;49.58;96204.97;4204263;28;5760;-69
2024/01/16 09:17:31;;;;;;;;;;;;;;;7.54;49.25;96209.22;4208122;28;5834;-69
2024/01/16 09:19:35;;;;;;;;;;;;;;;7.55;49.34;96208.22;4215848;28;5668;-69
2024/01/16 09:21:38;;;;;;;;;;;;;;;7.58;49.58;96215.72;4217009;28;5651;-69
2024/01/16 09:23:43;;;;;;;;;;;;;;;7.61;49.41;96221.63;4216834;28;5762;-69
2024/01/16 09:25:46;;;;;;;;;;;;;;;7.63;49.42;96222.25;4217515;28;5687;-70
2024/01/16 09:27:50;;;;;;;;;;;;;;;7.63;49.27;96217.81;4217024;28;5817;-69
2024/01/16 09:29:53;;;;;;;;;;;;;;;7.66;49.21;96212.16;4216423;28;5939;-69
2024/01/16 09:31:55;;;;;;;;;;;;;;;7.68;49.16;96217.22;4217390;28;6856;-69
2024/01/16 09:33:59;;;;;;;;;;;;;;;7.70;49.40;96212.59;4217125;28;5660;-69
2024/01/16 09:36:02;;;;;;;;;;;;;;;7.70;49.25;96213.44;4200698;28;5715;-68
2024/01/16 09:38:05;;;;;;;;;;;;;;;7.72;49.42;96229.03;4201329;28;5704;-70
2024/01/16 09:40:13;;;;;;;;;;;;;;;7.73;49.43;96218.31;4204548;28;5799;-69
2024/01/16 09:42:16;;;;;;;;;;;;;;;7.74;49.22;96227.03;4216935;28;5704;-70
2024/01/16 09:44:20;;;;;;;;;;;;;;;7.71;49.33;96225.59;4213147;28;5858;-70
2024/01/16 09:46:26;;;;;;;;;;;;;;;7.70;49.13;96228.38;4215694;28;6460;-69
2024/01/16 09:48:29;;;;;;;;;;;;;;;7.69;49.02;96237.28;4220065;28;5725;-70
2024/01/16 09:50:32;;;;;;;;;;;;;;;7.68;49.33;96230.38;4217745;28;5821;-70
2024/01/16 09:52:35;;;;;;;;;;;;;;;7.65;49.12;96233.41;4214902;28;5821;-70
2024/01/16 09:54:38;;;;;;;;;;;;;;;7.66;49.29;96233.22;4215828;28;5663;-70
2024/01/16 09:56:46;;;;;;;;;;;;;;;7.67;48.90;96237.47;4216168;28;5679;-70
2024/01/16 09:58:49;;;;;;;;;;;;;;;7.69;49.01;96237.28;4216922;28;5798;-69
2024/01/16 10:00:53;;;;;;;;;;;;;;;7.70;49.02;96233.63;4216524;28;5655;-69
2024/01/16 10:02:58;;;;;;;;;;;;;;;7.69;48.86;96234.66;4216194;28;5834;-69
2024/01/16 10:05:02;;;;;;;;;;;;;;;7.68;49.06;96225.13;4217209;28;5822;-69
2024/01/16 10:07:06;;;;;;;;;;;;;;;7.69;49.11;96227.56;4216557;28;6453;-70
2024/01/16 10:09:12;;;;;;;;;;;;;;;7.68;48.88;96214.59;4216548;28;5676;-70
2024/01/16 10:11:15;;;;;;;;;;;;;;;7.65;48.65;96209.72;4216688;28;5679;-72
2024/01/16 10:13:20;;;;;;;;;;;;;;;7.68;48.90;96207.53;4216489;28;5699;-70
2024/01/16 10:15:24;;;;;;;;;;;;;;;7.69;48.84;96216.22;4216615;28;5692;-70
2024/01/16 10:17:36;;;;;;;;;;;;;;;7.62;48.69;96221.44;4216286;28;5758;-70
2024/01/16 10:19:49;;;;;;;;;;;;;;;7.64;48.66;96219.44;4212871;28;5693;-70
2024/01/16 10:21:52;;;;;;;;;;;;;;;7.68;48.50;96233.03;4215683;28;5668;-69
2024/01/16 10:23:56;;;;;;;;;;;;;;;7.65;48.66;96223.69;4216385;28;5667;-70
2024/01/16 10:26:09;;;;;;;;;;;;;;;7.69;48.66;96221.50;4216996;28;5680;-70
2024/01/16 10:28:12;;;;;;;;;;;;;;;7.69;48.46;96198.63;4215585;28;5814;-70
2024/01/16 10:30:24;;;;;;;;;;;;;;;7.70;48.81;96196.81;4216505;28;5683;-69
2024/01/16 10:32:28;;;;;;;;;;;;;;;7.72;48.57;96210.63;4215952;28;5679;-69
2024/01/16 10:34:32;;;;;;;;;;;;;;;7.73;48.36;96214.88;4215521;28;5790;-69
2024/01/16 10:36:36;;;;;;;;;;;;;;;7.68;48.30;96218.03;4216545;28;5676;-69
2024/01/16 10:38:40;;;;;;;;;;;;;;;7.61;48.26;96214.56;4205526;28;5756;-69
2024/01/16 10:40:44;;;;;;;;;;;;;;;7.63;48.18;96212.56;4208656;28;5767;-70
2024/01/16 10:42:48;;;;;;;;;;;;;;;7.63;48.19;96201.22;4215992;28;5676;-70
2024/01/16 10:44:54;;;;;;;;;;;;;;;7.68;48.18;96197.00;4214612;28;5787;-70
2024/01/16 10:47:12;;;;;;;;;;;;;;;7.69;48.28;96190.72;4215558;28;5117;-70
2024/01/16 10:49:16;;;;;;;;;;;;;;;7.70;48.06;96194.19;4215478;28;7676;-70
2024/01/16 10:51:19;;;;;;;;;;;;;;;7.75;48.12;96199.69;4206504;28;5689;-69
2024/01/16 10:53:24;;;;;;;;;;;;;;;7.74;47.94;96193.63;4212041;28;5688;-70
2024/01/16 10:55:30;;;;;;;;;;;;;;;7.73;47.90;96192.00;4215709;28;5683;-70
2024/01/16 10:57:34;;;;;;;;;;;;;;;7.75;48.07;96184.72;4216576;28;5751;-68
2024/01/16 10:59:43;;;;;;;;;;;;;;;7.75;47.85;96194.44;4218805;28;5919;-70
2024/01/16 11:01:51;;;;;;;;;;;;;;;7.75;48.08;96176.84;4219350;28;5682;-70
2024/01/16 11:03:59;;;;;;;;;;;;;;;7.78;48.08;96188.78;4219636;28;5678;-69
2024/01/16 11:06:07;;;;;;;;;;;;;;;7.79;47.83;96185.16;4203018;28;5737;-70
2024/01/16 11:08:16;;;;;;;;;;;;;;;7.74;47.65;96184.91;4202621;28;5709;-69
2024/01/16 11:10:21;;;;;;;;;;;;;;;7.68;47.89;96178.59;4202375;28;5783;-69
2024/01/16 11:12:26;;;;;;;;;;;;;;;7.72;47.66;96186.94;4202325;28;5696;-69
2024/01/16 11:14:30;;;;;;;;;;;;;;;7.72;47.79;96184.31;4206067;28;5660;-69
2024/01/16 11:16:34;;;;;;;;;;;;;;;7.72;47.52;96179.84;4219230;28;5762;-70
2024/01/16 11:18:38;;;;;;;;;;;;;;;7.73;47.80;96196.44;4218395;28;5756;-70
2024/01/16 11:20:42;;;;;;;;;;;;;;;7.76;47.55;96193.44;4218884;28;5679;-70
2024/01/16 11:23:06;;;;;;;;;;;;;;;7.74;47.32;96191.00;4219354;28;5687;-70
2024/01/16 11:25:09;;;;;;;;;;;;;;;7.75;47.41;96187.34;4218273;28;5890;-69
2024/01/16 11:27:23;;;;;;;;;;;;;;;7.78;47.38;96184.34;4218744;28;5739;-69
2024/01/16 11:29:36;;;;;;;;;;;;;;;7.79;47.06;96180.69;4218155;28;5750;-68
2024/01/16 11:31:39;;;;;;;;;;;;;;;7.76;46.99;96170.56;4219266;28;5754;-70
2024/01/16 11:33:46;;;;;;;;;;;;;;;7.77;47.44;96181.91;4218947;28;5691;-69
2024/01/16 11:35:49;;;;;;;;;;;;;;;7.78;47.37;96184.34;4217551;28;5667;-68
2024/01/16 11:37:53;;;;;;;;;;;;;;;7.78;47.24;96178.25;4217111;28;5768;-71
2024/01/16 11:40:23;;;;;;;;;;;;;;;7.78;47.35;96184.34;4219251;28;5727;-73
2024/01/16 11:42:28;;;;;;;;;;;;;;;7.80;47.47;96181.50;4215561;28;7136;-74
2024/01/16 11:44:39;;;;;;;;;;;;;;;7.81;47.45;96169.97;4213586;28;5786;-72
2024/01/16 11:47:01;;;;;;;;;;;;;;;7.81;47.28;96167.34;4217315;28;5826;-75
2024/01/16 11:49:04;;;;;;;;;;;;;;;7.82;47.36;96169.81;4216864;28;5738;-72
2024/01/16 11:51:22;;;;;;;;;;;;;;;7.83;47.57;96170.63;4216132;28;5672;-73
2024/01/16 11:53:38;;;;;;;;;;;;;;;7.83;47.41;96162.72;4218654;28;5692;-73
2024/01/16 11:56:01;;;;;;;;;;;;;;;7.81;47.36;96151.56;4218724;28;5755;-73
2024/01/16 11:58:33;;;;;;;;;;;;;;;7.79;47.35;96143.03;4218376;28;5743;-72
2024/01/16 12:00:37;;;;;;;;;;;;;;;7.77;47.42;96139.81;4216324;28;5778;-73
2024/01/16 12:02:51;;;;;;;;;;;;;;;7.75;47.37;96126.84;4218595;28;5747;-71
2024/01/16 12:04:56;;;;;;;;;;;;;;;7.77;47.46;96131.91;4218836;28;5669;-73
2024/01/16 12:07:00;;;;;;;;;;;;;;;7.76;47.43;96122.38;4218320;28;5687;-71
2024/01/16 12:09:15;;;;;;;;;;;;;;;7.73;47.55;96122.78;4218776;28;5730;-74
2024/01/16 12:11:19;;;;;;;;;;;;;;;7.76;47.32;96117.13;4218223;28;5795;-71
2024/01/16 12:13:27;;;;;;;;;;;;;;;7.79;47.62;96109.66;4218823;28;6491;-71
2024/01/16 12:15:31;;;;;;;;;;;;;;;7.82;47.59;96106.66;4218513;28;5692;-74
2024/01/16 12:17:34;;;;;;;;;;;;;;;7.84;47.52;96098.56;4218286;28;5675;-75
2024/01/16 12:19:40;;;;;;;;;;;;;;;7.86;47.24;96096.56;4218067;28;5746;-74
2024/01/16 12:21:45;;;;;;;;;;;;;;;7.84;47.27;96088.84;4218231;28;5664;-75
2024/01/16 12:23:48;;;;;;;;;;;;;;;7.87;47.61;96087.66;4218451;28;5902;-75
2024/01/16 12:26:08;;;;;;;;;;;;;;;7.89;47.69;96086.44;4218159;28;5680;-71
2024/01/16 12:28:11;;;;;;;;;;;;;;;7.89;47.55;96080.38;4218302;28;5664;-72
2024/01/16 12:30:14;;;;;;;;;;;;;;;7.91;47.71;96073.09;4218451;28;5719;-74
2024/01/16 12:32:18;;;;;;;;;;;;;;;7.91;47.68;96073.09;4218384;28;5668;-72
2024/01/16 12:34:23;;;;;;;;;;;;;;;7.92;47.71;96073.91;4218179;28;5697;-72
2024/01/16 12:36:27;;;;;;;;;;;;;;;7.90;47.69;96071.47;4218278;28;5774;-75
2024/01/16 12:38:31;;;;;;;;;;;;;;;7.91;47.60;96078.34;4217050;28;5864;-76
2024/01/16 12:40:34;;;;;;;;;;;;;;;7.91;47.65;96073.09;4202388;28;5784;-72
2024/01/16 12:42:38;;;;;;;;;;;;;;;7.91;47.76;96067.81;4217650;28;5695;-72
2024/01/16 12:44:41;;;;;;;;;;;;;;;7.95;47.63;96063.81;4205936;28;5713;-71
2024/01/16 12:46:45;;;;;;;;;;;;;;;7.96;47.75;96052.28;4201317;28;5834;-72
2024/01/16 12:48:48;;;;;;;;;;;;;;;7.97;47.66;96053.09;4215704;28;5769;-73
2024/01/16 12:51:06;;;;;;;;;;;;;;;7.94;47.65;96045.59;4218010;28;5688;-71
2024/01/16 12:53:11;;;;;;;;;;;;;;;7.98;47.71;96041.56;4214240;28;5840;-71
2024/01/16 12:55:15;;;;;;;;;;;;;;;8.01;47.67;96044.59;4212023;28;5915;-72
2024/01/16 12:57:20;;;;;;;;;;;;;;;8.05;47.89;96053.75;4211641;28;5693;-72
2024/01/16 12:59:30;;;;;;;;;;;;;;;8.10;47.84;96037.34;4207695;28;5732;-77
2024/01/16 13:01:33;;;;;;;;;;;;;;;8.10;47.41;96035.53;4234966;28;5490;-84
2024/01/16 13:03:42;;;;;;;;;;;;;;;8.10;47.71;96027.63;4226780;28;5707;-85
2024/01/16 13:05:46;;;;;;;;;;;;;;;8.07;47.85;96014.88;4234853;28;6929;-85
2024/01/16 13:08:02;;;;;;;;;;;;;;;8.06;47.77;96010.63;4235311;28;5679;-85
2024/01/16 13:10:11;;;;;;;;;;;;;;;8.08;48.08;96013.06;4234357;28;5533;-72
2024/01/16 13:12:20;;;;;;;;;;;;;;;8.09;47.92;96004.94;4216548;28;5732;-73
2024/01/16 13:14:26;;;;;;;;;;;;;;;8.13;48.04;96000.91;4217109;28;5683;-76
2024/01/16 13:16:28;;;;;;;;;;;;;;;8.16;47.74;96000.53;4214012;28;5753;-75
2024/01/16 13:18:32;;;;;;;;;;;;;;;8.20;48.13;95993.03;4216502;28;5776;-76
2024/01/16 13:20:36;;;;;;;;;;;;;;;8.23;47.90;95992.63;4215682;28;5755;-75
2024/01/16 13:22:39;;;;;;;;;;;;;;;8.25;47.75;95987.16;4209179;28;5680;-77
2024/01/16 13:24:49;;;;;;;;;;;;;;;8.29;48.08;95993.69;4216375;28;5676;-74
2024/01/16 13:27:07;;;;;;;;;;;;;;;8.27;47.77;95985.16;4216161;28;5798;-74
2024/01/16 13:29:09;;;;;;;;;;;;;;;8.23;47.87;95981.31;4217436;28;5691;-77
2024/01/16 13:31:13;;;;;;;;;;;;;;;8.23;47.87;95986.56;4217650;28;5791;-74
2024/01/16 13:33:17;;;;;;;;;;;;;;;8.26;47.97;95981.72;4213391;28;5696;-75
2024/01/16 13:35:20;;;;;;;;;;;;;;;8.28;47.72;95976.28;4201950;28;5684;-74
2024/01/16 13:37:23;;;;;;;;;;;;;;;8.29;48.03;95975.25;4214637;28;5676;-74
2024/01/16 13:39:26;;;;;;;;;;;;;;;8.30;48.09;95968.97;4216808;28;5687;-74
2024/01/16 13:41:29;;;;;;;;;;;;;;;8.29;47.95;95962.09;4213318;28;5703;-74
2024/01/16 13:43:33;;;;;;;;;;;;;;;8.29;47.95;95965.53;4210965;28;6475;-73
2024/01/16 13:45:36;;;;;;;;;;;;;;;8.29;48.13;95977.88;4215400;28;6694;-74
2024/01/16 13:47:40;;;;;;;;;;;;;;;8.28;48.20;95969.19;4216040;28;5765;-74
2024/01/16 13:49:44;;;;;;;;;;;;;;;8.28;48.20;95969.19;4216896;28;5758;-75
2024/01/16 13:51:49;;;;;;;;;;;;;;;8.29;48.09;95956.81;4215514;28;5803;-74
2024/01/16 13:53:51;;;;;;;;;;;;;;;8.28;47.89;95961.28;4214989;28;5717;-74
2024/01/16 13:55:55;;;;;;;;;;;;;;;8.27;48.12;95959.66;4215596;28;5702;-74
2024/01/16 13:57:59;;;;;;;;;;;;;;;8.28;48.08;95956.00;4216321;28;5671;-75
2024/01/16 14:00:02;;;;;;;;;;;;;;;8.28;48.25;95960.47;4216872;28;5786;-75
2024/01/16 14:02:08;;;;;;;;;;;;;;;8.27;48.03;95953.56;4215655;28;6377;-74
2024/01/16 14:04:12;;;;;;;;;;;;;;;8.28;48.52;95952.56;4216496;28;5751;-74
2024/01/16 14:06:17;;;;;;;;;;;;;;;8.28;48.49;95952.56;4215515;28;5675;-74
2024/01/16 14:08:40;;;;;;;;;;;;;;;8.30;48.35;95953.97;4200080;28;5831;-75
2024/01/16 14:10:44;;;;;;;;;;;;;;;8.28;48.28;95956.00;4202343;28;5839;-73
2024/01/16 14:12:47;;;;;;;;;;;;;;;8.31;48.56;95957.44;4215075;28;5724;-74
2024/01/16 14:14:51;;;;;;;;;;;;;;;8.34;48.58;95954.38;4216490;28;5672;-74
2024/01/16 14:16:54;;;;;;;;;;;;;;;8.35;48.24;95948.13;4215656;28;5207;-74
2024/01/16 14:19:03;;;;;;;;;;;;;;;8.35;48.25;95964.75;4216115;28;7793;-74
2024/01/16 14:21:08;;;;;;;;;;;;;;;8.35;48.50;95956.84;4221341;28;5684;-74
2024/01/16 14:23:12;;;;;;;;;;;;;;;8.35;48.54;95969.22;4216110;28;6352;-73
2024/01/16 14:25:18;;;;;;;;;;;;;;;8.37;48.21;95957.47;4216559;28;5771;-73
2024/01/16 14:27:22;;;;;;;;;;;;;;;8.37;48.65;95959.28;4213683;28;5777;-73
2024/01/16 14:29:28;;;;;;;;;;;;;;;8.38;48.70;95955.63;4216431;28;5675;-73
2024/01/16 14:31:32;;;;;;;;;;;;;;;8.38;48.70;95953.00;4216510;28;5676;-74
2024/01/16 14:33:36;;;;;;;;;;;;;;;8.40;48.32;95956.28;4218595;28;5781;-75
2024/01/16 14:35:39;;;;;;;;;;;;;;;8.39;48.61;95954.66;4220085;28;5739;-74
2024/01/16 14:37:43;;;;;;;;;;;;;;;8.42;48.79;95954.25;4219617;28;6365;-76
2024/01/16 14:39:46;;;;;;;;;;;;;;;8.41;48.41;95955.25;4218381;28;5664;-75
2024/01/16 14:41:49;;;;;;;;;;;;;;;8.38;48.44;95948.56;4218566;28;5687;-74
2024/01/16 14:43:54;;;;;;;;;;;;;;;8.39;48.71;95944.13;4214754;28;5783;-75
2024/01/16 14:45:58;;;;;;;;;;;;;;;8.39;48.63;95946.75;4219959;28;5698;-75
2024/01/16 14:48:03;;;;;;;;;;;;;;;8.39;48.71;95941.47;4219404;28;5680;-73
2024/01/16 14:50:09;;;;;;;;;;;;;;;8.41;48.78;95942.91;4219436;28;5700;-74
2024/01/16 14:52:13;;;;;;;;;;;;;;;8.39;48.62;95939.66;4219981;28;5802;-74
2024/01/16 14:54:18;;;;;;;;;;;;;;;8.40;48.84;95932.56;4219352;28;5739;-75
2024/01/16 14:56:20;;;;;;;;;;;;;;;8.39;48.56;95936.22;4218180;28;5746;-73
2024/01/16 14:58:23;;;;;;;;;;;;;;;8.34;48.65;95942.06;4217699;28;5672;-74
2024/01/16 15:00:27;;;;;;;;;;;;;;;8.29;48.61;95933.94;4217845;28;5834;-74
2024/01/16 15:02:30;;;;;;;;;;;;;;;8.29;48.82;95939.19;4216449;28;5676;-74
2024/01/16 15:04:33;;;;;;;;;;;;;;;8.31;48.96;95941.63;4215693;28;5664;-74
2024/01/16 15:06:37;;;;;;;;;;;;;;;8.32;48.82;95935.34;4216179;28;6369;-74
2024/01/16 15:08:40;;;;;;;;;;;;;;;8.30;48.76;95940.81;4215122;28;5679;-67
2024/01/16 15:10:45;;;;;;;;;;;;;;;8.32;48.73;95946.69;4217263;28;5771;-72
2024/01/16 15:12:48;;;;;;;;;;;;;;;8.33;48.95;95945.69;4210814;28;5892;-73
2024/01/16 15:14:51;;;;;;;;;;;;;;;8.34;48.62;95943.84;4218264;28;5773;-74
2024/01/16 15:16:54;;;;;;;;;;;;;;;8.35;48.67;95943.69;4216161;28;5656;-74
2024/01/16 15:18:57;;;;;;;;;;;;;;;8.34;48.92;95944.69;4213894;28;5818;-74
2024/01/16 15:21:00;;;;;;;;;;;;;;;8.37;48.75;95940.84;4215404;28;5694;-73
2024/01/16 15:23:04;;;;;;;;;;;;;;;8.37;48.72;95940.84;4212472;28;5936;-73
2024/01/16 15:25:08;;;;;;;;;;;;;;;8.35;48.75;95938.41;4214934;28;5664;-73
2024/01/16 15:27:13;;;;;;;;;;;;;;;8.37;49.13;95935.56;4214581;28;5668;-74
2024/01/16 15:29:16;;;;;;;;;;;;;;;8.35;49.15;95927.06;4215061;28;5676;-73
2024/01/16 15:31:19;;;;;;;;;;;;;;;8.35;48.82;95917.34;4216791;28;5667;-74
2024/01/16 15:33:22;;;;;;;;;;;;;;;8.31;49.21;95916.09;4217958;28;5684;-73
2024/01/16 15:35:25;;;;;;;;;;;;;;;8.29;49.19;95919.97;4212209;28;5667;-74
2024/01/16 15:37:30;;;;;;;;;;;;;;;8.30;49.23;95925.00;4218518;28;5821;-74
2024/01/16 15:39:32;;;;;;;;;;;;;;;8.33;49.04;95918.53;4215229;28;5679;-74
2024/01/16 15:41:35;;;;;;;;;;;;;;;8.35;49.10;95921.81;4216734;28;5854;-74
2024/01/16 15:43:40;;;;;;;;;;;;;;;8.36;49.44;95920.78;4208496;28;5713;-75
2024/01/16 15:45:44;;;;;;;;;;;;;;;8.33;49.29;95923.81;4219798;28;5167;-75
2024/01/16 15:47:48;;;;;;;;;;;;;;;8.34;49.45;95928.06;4219095;28;5727;-75
2024/01/16 15:49:51;;;;;;;;;;;;;;;8.34;49.33;95928.91;4219614;28;5818;-74
2024/01/16 15:51:56;;;;;;;;;;;;;;;8.35;49.24;95932.34;4219088;28;5677;-75
2024/01/16 15:53:59;;;;;;;;;;;;;;;8.34;49.34;95933.31;4218976;28;5684;-75
2024/01/16 15:56:05;;;;;;;;;;;;;;;8.34;49.50;95949.13;4217815;28;6377;-76
2024/01/16 15:58:08;;;;;;;;;;;;;;;8.33;49.35;95945.69;4218354;28;5783;-74
2024/01/16 16:00:15;;;;;;;;;;;;;;;8.33;49.59;95944.88;4218797;28;6557;-75
2024/01/16 16:02:18;;;;;;;;;;;;;;;8.32;49.52;95943.25;4217631;28;7234;-75
2024/01/16 16:04:23;;;;;;;;;;;;;;;8.31;49.33;95944.25;4221527;28;5672;-75
2024/01/16 16:06:27;;;;;;;;;;;;;;;8.29;49.50;95949.72;4220267;28;5892;-74
2024/01/16 16:08:30;;;;;;;;;;;;;;;8.28;49.50;95952.56;4218698;28;5818;-74
2024/01/16 16:10:35;;;;;;;;;;;;;;;8.28;49.64;95952.56;4210230;28;5749;-73
2024/01/16 16:12:38;;;;;;;;;;;;;;;8.28;49.77;95963.09;4217021;28;5765;-74
2024/01/16 16:14:41;;;;;;;;;;;;;;;8.29;49.55;95970.00;4216981;28;5667;-74
2024/01/16 16:16:48;;;;;;;;;;;;;;;8.31;49.70;95967.97;4218206;28;5830;-74
2024/01/16 16:18:51;;;;;;;;;;;;;;;8.32;49.44;95965.13;4216599;28;5089;-74
2024/01/16 16:20:53;;;;;;;;;;;;;;;8.36;49.69;95973.47;4218938;28;7799;-73
2024/01/16 16:22:57;;;;;;;;;;;;;;;8.37;49.77;95980.34;4216853;28;6756;-74
2024/01/16 16:25:00;;;;;;;;;;;;;;;8.39;49.44;95975.72;4214756;28;5840;-74
2024/01/16 16:27:04;;;;;;;;;;;;;;;8.40;49.83;95974.72;4217842;28;6803;-73
2024/01/16 16:29:08;;;;;;;;;;;;;;;8.38;49.72;95974.06;4215719;28;5858;-74
2024/01/16 16:31:12;;;;;;;;;;;;;;;8.35;49.71;95974.47;4218312;28;5751;-74
2024/01/16 16:33:16;;;;;;;;;;;;;;;8.33;49.74;95981.75;4217848;28;5758;-74
2024/01/16 16:35:19;;;;;;;;;;;;;;;8.34;49.99;95983.34;4214505;28;5679;-73
2024/01/16 16:37:22;;;;;;;;;;;;;;;8.35;50.16;95977.09;4205931;28;5758;-71
2024/01/16 16:39:26;;;;;;;;;;;;;;;8.36;50.17;95984.00;4214153;28;5804;-73
2024/01/16 16:41:28;;;;;;;;;;;;;;;8.40;50.34;95979.97;4204708;28;5682;-71
2024/01/16 16:43:31;;;;;;;;;;;;;;;8.42;50.30;95981.38;4204604;28;5831;-72
2024/01/16 16:45:34;;;;;;;;;;;;;;;8.44;49.93;95984.63;4206306;28;6497;-68
2024/01/16 16:47:37;;;;;;;;;;;;;;;8.46;50.51;95984.44;4203843;28;5811;-69
2024/01/16 16:49:41;;;;;;;;;;;;;;;8.48;50.26;95985.03;4207632;28;5802;-72
2024/01/16 16:51:45;;;;;;;;;;;;;;;8.49;50.32;95984.03;4208156;28;5819;-70
2024/01/16 16:53:49;;;;;;;;;;;;;;;8.49;50.41;95978.75;4204953;28;5825;-66
2024/01/16 16:55:52;;;;;;;;;;;;;;;8.49;50.45;95970.84;4202664;28;5878;-67
2024/01/16 16:57:55;;;;;;;;;;;;;;;8.49;50.54;95965.59;4208041;28;5798;-76
2024/01/16 16:59:58;;;;;;;;;;;;;;;8.48;50.52;95963.97;4205033;28;5826;-76
2024/01/16 17:02:02;;;;;;;;;;;;;;;8.45;50.57;95970.44;4217062;28;5856;-74
2024/01/16 17:04:06;;;;;;;;;;;;;;;8.48;50.86;95971.88;4213284;28;5766;-76
2024/01/16 17:06:12;;;;;;;;;;;;;;;8.49;51.05;95973.47;4208079;28;5688;-73
2024/01/16 17:08:16;;;;;;;;;;;;;;;8.50;50.93;95976.97;4216897;28;5680;-73
2024/01/16 17:10:19;;;;;;;;;;;;;;;8.51;51.32;95982.03;4217432;28;5759;-69
2024/01/16 17:12:22;;;;;;;;;;;;;;;8.50;51.00;95971.69;4207839;28;5685;-69
2024/01/16 17:14:24;;;;;;;;;;;;;;;8.48;51.34;95966.59;4212366;28;5766;-66
2024/01/16 17:16:28;;;;;;;;;;;;;;;8.46;51.43;95968.63;4214958;28;5659;-73
2024/01/16 17:18:33;;;;;;;;;;;;;;;8.45;51.26;95962.53;4213465;28;5699;-70
2024/01/16 17:20:36;;;;;;;;;;;;;;;8.45;51.67;95961.75;4215213;28;5792;-71
2024/01/16 17:22:41;;;;;;;;;;;;;;;8.46;51.63;95960.72;4212759;28;5954;-70
2024/01/16 17:24:44;;;;;;;;;;;;;;;8.45;51.79;95962.53;4216061;28;5684;-71
2024/01/16 17:26:47;;;;;;;;;;;;;;;8.47;51.66;95967.63;4207993;28;5681;-71
2024/01/16 17:28:50;;;;;;;;;;;;;;;8.46;52.08;95971.25;4203604;28;5704;-71